Time;durP1;ratioP1;P1;durP2;ratioP2;P2;SDS_P1;SDS_P2;PMS_P1;PMS_P2;Temp;Humidity;BMP_temperature;BMP_pressure;BME280_temperature;BME280_humidity;BME280_pressure;Samples;Min_cycle;Max_cycle;Signal;HPM_P1;HPM_P2
2023/07/14 00:00:27;;;;;;;3.53;1.77;;;;;;;;;;5022943;28;20723;-82
2023/07/14 00:02:55;;;;;;;7.23;1.93;;;;;;;;;;5025395;28;20238;-82
2023/07/14 00:05:26;;;;;;;1.73;1.63;;;;;;;;;;5022759;28;20200;-82
2023/07/14 00:07:54;;;;;;;1.70;1.60;;;;;;;;;;5016884;28;20231;-82
2023/07/14 00:10:22;;;;;;;1.73;1.43;;;;;;;;;;5015454;28;20234;-82
2023/07/14 00:12:51;;;;;;;2.80;1.60;;;;;;;;;;5022891;28;20238;-82
2023/07/14 00:15:20;;;;;;;2.53;1.50;;;;;;;;;;5029560;28;20198;-82
2023/07/14 00:17:47;;;;;;;2.50;1.40;;;;;;;;;;5016749;28;20565;-82
2023/07/14 00:20:19;;;;;;;1.93;1.43;;;;;;;;;;5026675;28;20276;-82
2023/07/14 00:22:48;;;;;;;1.63;1.53;;;;;;;;;;5013772;28;20235;-82
2023/07/14 00:25:17;;;;;;;1.60;1.50;;;;;;;;;;5015864;28;20286;-82
2023/07/14 00:27:44;;;;;;;3.30;2.00;;;;;;;;;;5021422;28;20234;-82
2023/07/14 00:30:14;;;;;;;1.97;1.80;;;;;;;;;;5020282;28;20671;-82
2023/07/14 00:32:41;;;;;;;2.60;1.47;;;;;;;;;;5021918;28;20227;-81
2023/07/14 00:35:17;;;;;;;1.67;1.47;;;;;;;;;;5028854;28;20207;-82
2023/07/14 00:37:44;;;;;;;2.50;1.73;;;;;;;;;;5026090;28;20238;-82
2023/07/14 00:40:16;;;;;;;1.70;1.60;;;;;;;;;;5031802;28;20728;-82
2023/07/14 00:42:43;;;;;;;2.00;1.63;;;;;;;;;;5028117;28;20240;-81
2023/07/14 00:45:11;;;;;;;1.47;1.37;;;;;;;;;;5033325;28;20206;-81
2023/07/14 00:47:40;;;;;;;2.93;1.60;;;;;;;;;;5028140;28;20293;-82
2023/07/14 00:50:10;;;;;;;3.63;1.87;;;;;;;;;;5028258;28;20597;-82
2023/07/14 00:52:39;;;;;;;1.70;1.60;;;;;;;;;;5032989;28;20214;-81
2023/07/14 00:55:24;;;;;;;5.27;1.50;;;;;;;;;;5026140;28;20234;-81
2023/07/14 00:57:53;;;;;;;3.40;1.57;;;;;;;;;;5032748;28;20230;-81
2023/07/14 01:00:23;;;;;;;2.10;1.57;;;;;;;;;;5033163;28;20222;-81
2023/07/14 01:02:50;;;;;;;2.03;1.77;;;;;;;;;;5015884;28;20259;-81
2023/07/14 01:05:17;;;;;;;1.77;1.67;;;;;;;;;;5014280;28;20207;-82
2023/07/14 01:07:46;;;;;;;2.83;1.70;;;;;;;;;;5016695;28;20235;-82
2023/07/14 01:10:17;;;;;;;1.90;1.50;;;;;;;;;;5031159;28;20224;-81
2023/07/14 01:12:47;;;;;;;2.97;1.73;;;;;;;;;;5022804;28;20231;-81
2023/07/14 01:15:14;;;;;;;2.50;1.60;;;;;;;;;;5022771;28;20662;-81
2023/07/14 01:17:42;;;;;;;2.20;1.90;;;;;;;;;;5014202;28;20285;-81
2023/07/14 01:20:11;;;;;;;2.10;1.70;;;;;;;;;;5016877;28;20246;-81
2023/07/14 01:22:44;;;;;;;1.80;1.70;;;;;;;;;;5025815;28;20607;-81
2023/07/14 01:25:16;;;;;;;2.10;1.87;;;;;;;;;;5018075;28;20700;-81
2023/07/14 01:27:46;;;;;;;4.20;1.57;;;;;;;;;;5017500;28;20720;-81
2023/07/14 01:30:13;;;;;;;1.57;1.47;;;;;;;;;;5022560;28;20235;-81
2023/07/14 01:32:43;;;;;;;2.53;1.53;;;;;;;;;;5014258;28;20289;-81
2023/07/14 01:35:10;;;;;;;2.23;1.77;;;;;;;;;;5014622;28;20203;-82
2023/07/14 01:37:39;;;;;;;1.93;1.83;;;;;;;;;;5014156;28;20258;-81
2023/07/14 01:40:11;;;;;;;2.93;1.90;;;;;;;;;;5030121;28;20230;-81
2023/07/14 01:42:38;;;;;;;1.70;1.60;;;;;;;;;;5019396;28;20245;-82
2023/07/14 01:45:11;;;;;;;2.77;1.70;;;;;;;;;;5013834;28;20693;-82
2023/07/14 01:47:38;;;;;;;3.30;1.70;;;;;;;;;;5013938;28;20289;-82
2023/07/14 01:50:06;;;;;;;2.87;1.53;;;;;;;;;;5013620;28;20736;-81
2023/07/14 01:52:34;;;;;;;1.83;1.53;;;;;;;;;;5022018;28;20231;-82
2023/07/14 01:55:02;;;;;;;2.57;1.73;;;;;;;;;;5014067;28;20203;-82
2023/07/14 01:57:31;;;;;;;3.63;1.80;;;;;;;;;;5013428;28;20215;-82
2023/07/14 02:00:00;;;;;;;4.07;2.10;;;;;;;;;;5014402;28;20282;-81
2023/07/14 02:02:31;;;;;;;2.23;1.80;;;;;;;;;;5024141;28;20237;-81
2023/07/14 02:04:58;;;;;;;2.07;1.73;;;;;;;;;;5011540;28;20204;-82
2023/07/14 02:07:25;;;;;;;3.00;2.00;;;;;;;;;;5013196;28;20207;-82
2023/07/14 02:09:52;;;;;;;1.80;1.60;;;;;;;;;;5013824;28;20222;-81
2023/07/14 02:12:27;;;;;;;1.77;1.67;;;;;;;;;;5008592;28;20684;-81
2023/07/14 02:14:57;;;;;;;1.80;1.70;;;;;;;;;;5016934;28;20203;-81
2023/07/14 02:17:26;;;;;;;4.17;1.60;;;;;;;;;;5021210;28;20210;-82
2023/07/14 02:19:55;;;;;;;3.83;2.13;;;;;;;;;;5013393;28;20313;-81
2023/07/14 02:22:23;;;;;;;1.90;1.80;;;;;;;;;;5005361;28;20258;-81
2023/07/14 02:24:50;;;;;;;1.97;1.80;;;;;;;;;;5013204;28;20732;-82
2023/07/14 02:27:17;;;;;;;2.00;1.80;;;;;;;;;;5012860;28;20599;-82
2023/07/14 02:29:44;;;;;;;2.50;1.70;;;;;;;;;;5013202;28;20257;-81
2023/07/14 02:32:14;;;;;;;3.80;1.83;;;;;;;;;;5013882;28;20676;-81
2023/07/14 02:34:42;;;;;;;2.57;1.50;;;;;;;;;;4993626;28;20232;-81
2023/07/14 02:37:24;;;;;;;1.50;1.40;;;;;;;;;;4992556;28;20208;-81
2023/07/14 02:39:53;;;;;;;2.40;1.60;;;;;;;;;;5015878;28;20227;-81
2023/07/14 02:42:20;;;;;;;3.47;1.63;;;;;;;;;;5029433;28;20326;-81
2023/07/14 02:44:47;;;;;;;4.50;1.90;;;;;;;;;;5004110;28;20208;-81
2023/07/14 02:47:17;;;;;;;1.67;1.47;;;;;;;;;;5011701;28;20701;-83
2023/07/14 02:49:48;;;;;;;2.67;1.90;;;;;;;;;;5021032;28;20569;-81
2023/07/14 02:52:15;;;;;;;1.87;1.77;;;;;;;;;;5012568;28;20204;-83
2023/07/14 02:54:42;;;;;;;2.37;1.80;;;;;;;;;;5012721;28;20621;-81
2023/07/14 02:57:10;;;;;;;2.77;1.80;;;;;;;;;;5012437;28;20673;-81
2023/07/14 02:59:37;;;;;;;3.50;1.60;;;;;;;;;;4992572;28;20282;-81
2023/07/14 03:02:05;;;;;;;2.73;1.70;;;;;;;;;;4993200;28;20675;-81
2023/07/14 03:04:34;;;;;;;1.90;1.80;;;;;;;;;;4992968;28;20232;-81
2023/07/14 03:07:01;;;;;;;2.00;1.80;;;;;;;;;;4983639;28;20208;-81
2023/07/14 03:09:28;;;;;;;3.33;1.83;;;;;;;;;;4991414;28;20240;-81
2023/07/14 03:11:55;;;;;;;1.90;1.80;;;;;;;;;;4993029;28;20572;-80
2023/07/14 03:14:24;;;;;;;3.00;1.87;;;;;;;;;;4986718;28;20275;-81
2023/07/14 03:16:51;;;;;;;5.03;2.13;;;;;;;;;;4993265;28;20267;-82
2023/07/14 03:19:18;;;;;;;1.93;1.53;;;;;;;;;;4991897;28;20255;-81
2023/07/14 03:21:45;;;;;;;1.70;1.60;;;;;;;;;;4992916;28;20629;-81
2023/07/14 03:24:12;;;;;;;2.37;1.87;;;;;;;;;;4988025;28;20290;-81
2023/07/14 03:26:39;;;;;;;1.97;1.87;;;;;;;;;;4992910;28;20255;-82
2023/07/14 03:29:06;;;;;;;2.53;1.90;;;;;;;;;;4992338;28;20271;-81
2023/07/14 03:31:34;;;;;;;2.97;2.17;;;;;;;;;;4992493;28;20298;-82
2023/07/14 03:34:01;;;;;;;2.87;1.90;;;;;;;;;;4992050;28;20820;-81
2023/07/14 03:36:28;;;;;;;2.47;1.90;;;;;;;;;;4992738;28;20203;-81
2023/07/14 03:39:10;;;;;;;2.30;1.73;;;;;;;;;;4992026;28;20603;-81
2023/07/14 03:41:37;;;;;;;3.50;2.00;;;;;;;;;;4985703;28;20283;-81
2023/07/14 03:44:04;;;;;;;2.20;1.70;;;;;;;;;;4991727;28;20266;-81
2023/07/14 03:46:31;;;;;;;3.83;1.77;;;;;;;;;;4992700;28;20212;-81
2023/07/14 03:49:00;;;;;;;2.13;1.70;;;;;;;;;;4991847;28;20609;-81
2023/07/14 03:51:30;;;;;;;2.90;1.93;;;;;;;;;;5023890;23;20238;-81
2023/07/14 03:53:57;;;;;;;2.27;2.10;;;;;;;;;;5025259;28;20231;-81
2023/07/14 03:56:24;;;;;;;2.00;1.60;;;;;;;;;;5023382;28;20761;-80
2023/07/14 03:58:51;;;;;;;5.83;1.87;;;;;;;;;;5015990;28;20701;-80
2023/07/14 04:01:18;;;;;;;4.23;2.40;;;;;;;;;;4988477;28;20232;-81
2023/07/14 04:03:47;;;;;;;1.97;1.77;;;;;;;;;;4983892;28;20298;-80
2023/07/14 04:06:16;;;;;;;1.83;1.73;;;;;;;;;;4990424;28;20302;-80
2023/07/14 04:08:44;;;;;;;2.10;1.77;;;;;;;;;;4997021;28;20290;-80
2023/07/14 04:11:11;;;;;;;4.07;1.70;;;;;;;;;;5010870;28;20237;-81
2023/07/14 04:13:38;;;;;;;1.70;1.60;;;;;;;;;;5003190;28;20235;-81
2023/07/14 04:16:07;;;;;;;1.67;1.57;;;;;;;;;;5015123;28;20219;-81
2023/07/14 04:18:34;;;;;;;2.07;1.87;;;;;;;;;;4991543;28;20628;-81
2023/07/14 04:21:01;;;;;;;1.90;1.80;;;;;;;;;;5008155;28;20246;-82
2023/07/14 04:23:32;;;;;;;1.90;1.80;;;;;;;;;;5002986;28;20731;-82
2023/07/14 04:25:59;;;;;;;3.47;1.93;;;;;;;;;;5003808;28;20343;-81
2023/07/14 04:28:26;;;;;;;3.10;1.80;;;;;;;;;;4999679;28;20363;-82
2023/07/14 04:30:54;;;;;;;2.57;1.80;;;;;;;;;;5007736;28;20235;-82
2023/07/14 04:33:21;;;;;;;4.37;2.10;;;;;;;;;;5009447;28;20262;-81
2023/07/14 04:35:48;;;;;;;4.53;2.10;;;;;;;;;;5002064;28;20247;-82
2023/07/14 04:38:16;;;;;;;2.03;1.83;;;;;;;;;;5011356;28;20231;-82
2023/07/14 04:40:44;;;;;;;4.23;2.07;;;;;;;;;;5012242;28;20235;-82
2023/07/14 04:43:11;;;;;;;4.30;1.70;;;;;;;;;;5011162;28;20235;-81
2023/07/14 04:45:39;;;;;;;2.50;1.87;;;;;;;;;;5012208;28;20211;-82
2023/07/14 04:48:06;;;;;;;4.10;1.90;;;;;;;;;;5009566;28;20231;-81
2023/07/14 04:50:33;;;;;;;6.63;2.90;;;;;;;;;;4996416;28;20208;-81
2023/07/14 04:53:00;;;;;;;6.17;1.90;;;;;;;;;;5004250;28;20727;-81
2023/07/14 04:55:27;;;;;;;3.67;2.83;;;;;;;;;;5009545;28;20830;-81
2023/07/14 04:57:56;;;;;;;6.63;2.30;;;;;;;;;;5007288;28;20301;-81
2023/07/14 05:00:23;;;;;;;4.17;1.90;;;;;;;;;;4997484;28;20235;-81
2023/07/14 05:02:50;;;;;;;4.63;2.03;;;;;;;;;;4996232;28;20241;-82
2023/07/14 05:05:19;;;;;;;6.27;2.83;;;;;;;;;;5016729;28;20830;-81
2023/07/14 05:07:47;;;;;;;1.90;1.80;;;;;;;;;;5000888;28;20570;-81
2023/07/14 05:10:14;;;;;;;2.23;2.10;;;;;;;;;;5008324;28;20212;-81
2023/07/14 05:12:41;;;;;;;4.37;2.30;;;;;;;;;;5011311;28;20289;-82
2023/07/14 05:15:11;;;;;;;6.57;2.27;;;;;;;;;;5009472;28;20212;-82
2023/07/14 05:17:38;;;;;;;14.37;2.97;;;;;;;;;;5010369;28;20654;-82
2023/07/14 05:20:06;;;;;;;6.63;2.53;;;;;;;;;;5011005;28;20227;-81
2023/07/14 05:22:33;;;;;;;4.50;2.40;;;;;;;;;;5011899;28;20301;-81
2023/07/14 05:25:00;;;;;;;2.60;2.13;;;;;;;;;;5013104;28;20219;-81
2023/07/14 05:27:27;;;;;;;3.93;2.10;;;;;;;;;;5011857;28;20215;-82
2023/07/14 05:29:54;;;;;;;3.00;2.13;;;;;;;;;;5004385;28;20265;-82
2023/07/14 05:32:24;;;;;;;3.93;2.20;;;;;;;;;;5001785;28;20232;-82
2023/07/14 05:34:51;;;;;;;3.43;2.07;;;;;;;;;;5007782;28;20215;-81
2023/07/14 05:37:19;;;;;;;4.30;2.27;;;;;;;;;;5012038;28;20258;-82
2023/07/14 05:39:46;;;;;;;4.33;2.30;;;;;;;;;;5013098;28;20243;-82
2023/07/14 05:42:13;;;;;;;5.40;2.27;;;;;;;;;;5008550;28;20243;-81
2023/07/14 05:44:40;;;;;;;8.77;2.20;;;;;;;;;;5010398;28;20787;-82
2023/07/14 05:47:07;;;;;;;1.93;1.70;;;;;;;;;;5004721;28;20220;-82
2023/07/14 05:49:36;;;;;;;2.33;2.13;;;;;;;;;;5012200;28;20651;-83
2023/07/14 05:52:03;;;;;;;4.03;2.23;;;;;;;;;;5013368;28;20762;-81
2023/07/14 05:54:30;;;;;;;2.70;1.87;;;;;;;;;;5007021;28;20235;-82
2023/07/14 05:56:58;;;;;;;4.10;2.30;;;;;;;;;;5003580;28;20652;-82
2023/07/14 05:59:25;;;;;;;2.10;1.90;;;;;;;;;;5004123;28;20232;-81
2023/07/14 06:01:52;;;;;;;3.70;2.30;;;;;;;;;;5004929;28;20232;-83
2023/07/14 06:04:19;;;;;;;3.40;2.40;;;;;;;;;;5009620;28;20362;-82
2023/07/14 06:06:47;;;;;;;4.27;1.90;;;;;;;;;;5009348;28;20804;-82
2023/07/14 06:09:16;;;;;;;2.47;2.27;;;;;;;;;;5011437;28;20700;-82
2023/07/14 06:11:44;;;;;;;3.47;2.73;;;;;;;;;;5013108;28;20227;-83
2023/07/14 06:14:11;;;;;;;4.07;2.20;;;;;;;;;;5012179;28;20600;-83
2023/07/14 06:16:38;;;;;;;2.73;1.80;;;;;;;;;;5004292;28;20215;-82
2023/07/14 06:19:08;;;;;;;5.30;1.87;;;;;;;;;;5004258;28;20235;-82
2023/07/14 06:21:36;;;;;;;2.50;2.07;;;;;;;;;;5004912;28;20227;-82
2023/07/14 06:24:07;;;;;;;4.70;2.20;;;;;;;;;;5012640;28;20291;-82
2023/07/14 06:26:34;;;;;;;3.50;2.10;;;;;;;;;;5010835;28;20211;-82
2023/07/14 06:29:01;;;;;;;3.83;2.05;;;;;;;;;;5004165;28;20639;-82
2023/07/14 06:31:28;;;;;;;6.55;2.38;;;;;;;;;;5010758;28;20254;-83
2023/07/14 06:33:56;;;;;;;3.63;2.10;;;;;;;;;;5011414;28;20223;-82
2023/07/14 06:36:23;;;;;;;2.50;2.30;;;;;;;;;;5009150;28;20219;-82
2023/07/14 06:38:50;;;;;;;1.90;1.80;;;;;;;;;;5010348;28;20293;-82
2023/07/14 06:41:18;;;;;;;5.40;2.10;;;;;;;;;;5002844;28;20231;-82
2023/07/14 06:43:46;;;;;;;2.13;2.00;;;;;;;;;;5000630;28;20679;-82
2023/07/14 06:46:13;;;;;;;6.93;2.38;;;;;;;;;;5008288;28;20289;-82
2023/07/14 06:48:40;;;;;;;3.53;2.00;;;;;;;;;;4996456;28;20235;-83
2023/07/14 06:51:07;;;;;;;4.05;2.03;;;;;;;;;;4996562;28;20259;-83
2023/07/14 06:53:34;;;;;;;2.88;2.00;;;;;;;;;;5011818;28;20234;-83
2023/07/14 06:56:01;;;;;;;2.60;2.10;;;;;;;;;;5005442;28;20530;-82
2023/07/14 06:58:29;;;;;;;2.40;1.73;;;;;;;;;;5004972;28;20239;-82
2023/07/14 07:00:57;;;;;;;3.90;2.13;;;;;;;;;;5000699;28;20243;-82
2023/07/14 07:03:24;;;;;;;2.60;2.15;;;;;;;;;;5007865;28;20234;-82
2023/07/14 07:05:51;;;;;;;3.03;2.05;;;;;;;;;;5006910;28;20749;-83
2023/07/14 07:08:18;;;;;;;1.95;1.67;;;;;;;;;;5011811;28;20257;-82
2023/07/14 07:10:45;;;;;;;3.85;1.90;;;;;;;;;;5008109;28;20220;-83
2023/07/14 07:13:13;;;;;;;4.05;1.75;;;;;;;;;;5000515;28;20245;-82
2023/07/14 07:15:41;;;;;;;2.13;1.63;;;;;;;;;;5003480;28;20887;-82
2023/07/14 07:18:08;;;;;;;5.30;1.90;;;;;;;;;;5011457;28;20314;-82
2023/07/14 07:20:37;;;;;;;2.38;1.63;;;;;;;;;;5004744;28;20281;-82
2023/07/14 07:23:04;;;;;;;1.65;1.55;;;;;;;;;;5004596;28;20231;-82
2023/07/14 07:25:31;;;;;;;1.70;1.52;;;;;;;;;;5011244;28;20215;-82
2023/07/14 07:27:58;;;;;;;3.45;1.77;;;;;;;;;;5011402;28;20497;-82
2023/07/14 07:30:26;;;;;;;3.00;1.58;;;;;;;;;;5010854;28;20207;-82
2023/07/14 07:32:54;;;;;;;3.05;1.27;;;;;;;;;;5011073;28;20262;-82
2023/07/14 07:35:21;;;;;;;1.95;1.45;;;;;;;;;;5002595;28;20212;-82
2023/07/14 07:37:48;;;;;;;1.98;1.50;;;;;;;;;;5003480;28;20243;-82
2023/07/14 07:40:15;;;;;;;3.85;1.50;;;;;;;;;;4999997;28;20231;-83
2023/07/14 07:42:42;;;;;;;2.03;1.08;;;;;;;;;;5002484;28;20239;-82
2023/07/14 07:45:10;;;;;;;3.10;1.55;;;;;;;;;;5003206;28;20214;-82
2023/07/14 07:47:37;;;;;;;2.55;1.38;;;;;;;;;;5003952;28;20238;-83
2023/07/14 07:50:06;;;;;;;2.47;1.70;;;;;;;;;;5010888;28;20208;-82
2023/07/14 07:52:33;;;;;;;4.70;2.25;;;;;;;;;;4999220;28;20298;-84
2023/07/14 07:55:01;;;;;;;4.15;1.60;;;;;;;;;;5007598;28;20263;-84
2023/07/14 07:57:28;;;;;;;5.70;1.88;;;;;;;;;;5001718;28;20244;-84
2023/07/14 07:59:55;;;;;;;2.83;1.67;;;;;;;;;;5010906;28;20215;-85
2023/07/14 08:02:22;;;;;;;2.65;1.58;;;;;;;;;;5006496;28;20235;-85
2023/07/14 08:04:49;;;;;;;5.30;1.55;;;;;;;;;;5012569;28;20677;-83
2023/07/14 08:07:18;;;;;;;3.80;1.63;;;;;;;;;;5010697;28;20637;-86
2023/07/14 08:09:45;;;;;;;2.17;1.38;;;;;;;;;;5007501;28;20736;-85
2023/07/14 08:12:12;;;;;;;3.30;1.42;;;;;;;;;;5004537;28;20717;-85
2023/07/14 08:14:50;;;;;;;3.40;1.60;;;;;;;;;;4999057;28;20235;-85
2023/07/14 08:17:17;;;;;;;2.83;1.33;;;;;;;;;;5006288;28;20257;-85
2023/07/14 08:19:45;;;;;;;5.28;1.27;;;;;;;;;;5011692;28;20525;-82
2023/07/14 08:22:12;;;;;;;2.53;1.48;;;;;;;;;;4995908;28;20239;-81
2023/07/14 08:24:40;;;;;;;2.97;1.63;;;;;;;;;;4997791;28;20330;-81
2023/07/14 08:27:07;;;;;;;4.15;1.63;;;;;;;;;;5002879;28;20216;-82
2023/07/14 08:29:34;;;;;;;4.32;1.50;;;;;;;;;;5005731;28;20274;-82
2023/07/14 08:32:02;;;;;;;5.93;1.70;;;;;;;;;;4998970;28;20223;-82
2023/07/14 08:34:29;;;;;;;4.00;1.50;;;;;;;;;;5001474;28;20235;-82
2023/07/14 08:36:56;;;;;;;3.60;1.30;;;;;;;;;;5002204;28;20687;-82
2023/07/14 08:39:23;;;;;;;1.30;1.20;;;;;;;;;;5009716;28;20258;-82
2023/07/14 08:41:53;;;;;;;2.63;1.35;;;;;;;;;;5003902;28;20238;-82
2023/07/14 08:44:28;;;;;;;7.03;1.67;;;;;;;;;;5008695;28;20227;-82
2023/07/14 08:47:01;;;;;;;2.58;1.75;;;;;;;;;;5002702;28;20669;-82
2023/07/14 08:49:30;;;;;;;2.80;1.20;;;;;;;;;;4993267;28;20698;-82
2023/07/14 08:51:59;;;;;;;1.75;1.35;;;;;;;;;;5010058;28;20293;-82
2023/07/14 08:54:29;;;;;;;3.50;1.40;;;;;;;;;;5011202;28;20231;-82
2023/07/14 08:56:58;;;;;;;3.30;1.55;;;;;;;;;;5000357;28;20205;-82
2023/07/14 08:59:31;;;;;;;3.47;2.13;;;;;;;;;;5010680;28;20223;-83
2023/07/14 09:01:59;;;;;;;1.90;1.15;;;;;;;;;;5005560;28;20325;-82
2023/07/14 09:04:28;;;;;;;4.63;1.42;;;;;;;;;;5003489;28;20247;-82
2023/07/14 09:06:56;;;;;;;1.35;1.13;;;;;;;;;;4993958;28;20214;-82
2023/07/14 09:09:32;;;;;;;4.25;1.70;;;;;;;;;;5002502;28;20231;-83
2023/07/14 09:12:03;;;;;;;3.25;1.38;;;;;;;;;;5013791;28;20314;-82
2023/07/14 09:14:37;;;;;;;1.38;1.27;;;;;;;;;;5010728;28;20228;-83
2023/07/14 09:17:10;;;;;;;3.03;1.30;;;;;;;;;;5002024;28;20290;-82
2023/07/14 09:19:43;;;;;;;6.82;1.50;;;;;;;;;;5011614;28;20227;-82
2023/07/14 09:22:14;;;;;;;3.05;1.08;;;;;;;;;;5013527;28;20223;-82
2023/07/14 09:24:44;;;;;;;1.75;1.23;;;;;;;;;;5012391;28;20231;-82
2023/07/14 09:27:15;;;;;;;2.42;1.10;;;;;;;;;;5006334;28;20215;-82
2023/07/14 09:29:44;;;;;;;7.40;1.30;;;;;;;;;;5004289;28;20238;-82
2023/07/14 09:32:13;;;;;;;4.00;1.42;;;;;;;;;;4998668;28;20309;-83
2023/07/14 09:34:42;;;;;;;1.17;1.08;;;;;;;;;;4989346;28;20244;-83
2023/07/14 09:37:13;;;;;;;2.35;1.35;;;;;;;;;;4989570;28;20218;-82
2023/07/14 09:39:43;;;;;;;1.90;1.10;;;;;;;;;;4992805;28;20240;-83
2023/07/14 09:42:19;;;;;;;4.95;1.05;;;;;;;;;;4993899;28;20608;-83
2023/07/14 09:44:46;;;;;;;3.05;1.40;;;;;;;;;;5004367;28;20232;-83
2023/07/14 09:47:13;;;;;;;4.65;1.35;;;;;;;;;;5008878;28;20207;-84
2023/07/14 09:49:42;;;;;;;1.35;1.20;;;;;;;;;;5012195;28;20956;-83
2023/07/14 09:52:15;;;;;;;1.80;1.25;;;;;;;;;;5010797;28;20238;-84
2023/07/14 09:54:43;;;;;;;3.00;1.52;;;;;;;;;;5004071;28;20227;-82
2023/07/14 09:57:12;;;;;;;4.35;1.20;;;;;;;;;;5007713;28;20218;-83
2023/07/14 09:59:50;;;;;;;3.95;1.20;;;;;;;;;;5011233;28;20242;-83
2023/07/14 10:02:17;;;;;;;4.18;1.35;;;;;;;;;;5004564;28;20319;-84
2023/07/14 10:04:48;;;;;;;2.30;1.40;;;;;;;;;;5011801;28;20700;-83
2023/07/14 10:07:42;;;;;;;2.70;1.30;;;;;;;;;;5004197;28;20248;-85
2023/07/14 10:10:14;;;;;;;1.80;1.40;;;;;;;;;;4998926;28;20207;-85
2023/07/14 10:12:45;;;;;;;1.98;0.88;;;;;;;;;;5012074;28;20243;-83
2023/07/14 10:15:25;;;;;;;2.42;1.10;;;;;;;;;;5012465;28;20238;-82
2023/07/14 10:17:53;;;;;;;1.75;1.15;;;;;;;;;;5005188;28;20233;-81
2023/07/14 10:20:21;;;;;;;2.15;1.35;;;;;;;;;;5012477;28;20240;-83
2023/07/14 10:22:51;;;;;;;1.67;1.40;;;;;;;;;;5011878;28;20239;-82
2023/07/14 10:25:19;;;;;;;2.22;0.95;;;;;;;;;;5012056;28;20294;-82
2023/07/14 10:27:53;;;;;;;3.28;1.48;;;;;;;;;;5003566;28;20227;-83
2023/07/14 10:30:26;;;;;;;2.50;1.30;;;;;;;;;;5004699;28;20310;-82
2023/07/14 10:32:55;;;;;;;3.20;1.42;;;;;;;;;;5004465;28;20821;-83
2023/07/14 10:35:24;;;;;;;2.00;1.23;;;;;;;;;;5003473;28;20212;-81
2023/07/14 10:37:55;;;;;;;4.45;1.00;;;;;;;;;;5010979;28;20871;-81
2023/07/14 10:40:24;;;;;;;1.52;0.95;;;;;;;;;;5009991;28;20298;-83
2023/07/14 10:42:53;;;;;;;3.25;1.25;;;;;;;;;;5011494;28;20262;-84
2023/07/14 10:45:21;;;;;;;1.85;1.30;;;;;;;;;;5011626;28;20204;-83
2023/07/14 10:47:50;;;;;;;1.20;1.10;;;;;;;;;;5010043;28;20234;-84
2023/07/14 10:50:20;;;;;;;1.80;1.30;;;;;;;;;;5011673;28;20215;-82
2023/07/14 10:52:51;;;;;;;2.45;0.98;;;;;;;;;;5007733;28;20328;-83
2023/07/14 10:55:21;;;;;;;2.25;1.25;;;;;;;;;;5011236;28;20227;-84
2023/07/14 10:57:50;;;;;;;2.75;1.30;;;;;;;;;;5003192;28;20748;-83
2023/07/14 11:00:22;;;;;;;2.20;1.10;;;;;;;;;;5004674;28;20216;-83
2023/07/14 11:02:53;;;;;;;1.77;0.98;;;;;;;;;;4995159;28;20231;-82
2023/07/14 11:05:23;;;;;;;1.70;1.30;;;;;;;;;;5011489;28;20207;-83
2023/07/14 11:07:50;;;;;;;1.98;1.13;;;;;;;;;;4991461;28;20745;-82
2023/07/14 11:10:26;;;;;;;1.48;1.08;;;;;;;;;;5007314;28;20254;-83
2023/07/14 11:12:56;;;;;;;1.73;1.02;;;;;;;;;;5002926;28;20241;-83
2023/07/14 11:15:25;;;;;;;5.03;1.40;;;;;;;;;;5011085;28;20211;-82
2023/07/14 11:17:57;;;;;;;2.90;1.30;;;;;;;;;;5010564;28;20227;-82
2023/07/14 11:20:30;;;;;;;2.65;1.25;;;;;;;;;;5011292;28;20207;-82
2023/07/14 11:23:03;;;;;;;3.75;1.02;;;;;;;;;;5003585;28;20323;-84
2023/07/14 11:25:34;;;;;;;3.70;1.10;;;;;;;;;;5005729;28;20215;-82
2023/07/14 11:28:03;;;;;;;2.50;1.20;;;;;;;;;;5010638;28;20230;-84
2023/07/14 11:30:31;;;;;;;2.10;1.20;;;;;;;;;;5002626;28;20218;-84
2023/07/14 11:33:04;;;;;;;2.08;1.10;;;;;;;;;;5006233;28;20228;-82
2023/07/14 11:35:35;;;;;;;2.08;1.20;;;;;;;;;;5007058;28;20211;-83
2023/07/14 11:38:12;;;;;;;3.83;1.10;;;;;;;;;;4999055;28;20235;-81
2023/07/14 11:40:41;;;;;;;1.98;1.13;;;;;;;;;;5009094;28;20235;-82
2023/07/14 11:43:11;;;;;;;1.13;1.02;;;;;;;;;;5004362;28;20232;-81
2023/07/14 11:45:39;;;;;;;3.47;1.30;;;;;;;;;;5006844;28;20223;-82
2023/07/14 11:48:06;;;;;;;1.63;1.15;;;;;;;;;;4996165;28;20238;-82
2023/07/14 11:50:35;;;;;;;2.55;1.20;;;;;;;;;;5010086;28;20220;-83
2023/07/14 11:53:10;;;;;;;3.63;1.20;;;;;;;;;;5010475;28;20231;-83
2023/07/14 11:55:39;;;;;;;2.42;1.00;;;;;;;;;;5008438;28;20214;-84
2023/07/14 11:58:11;;;;;;;1.92;1.73;;;;;;;;;;5004091;28;20231;-84
2023/07/14 12:00:40;;;;;;;3.40;0.80;;;;;;;;;;5008659;28;20276;-83
2023/07/14 12:03:22;;;;;;;2.28;1.00;;;;;;;;;;4995812;28;20234;-83
2023/07/14 12:06:10;;;;;;;3.85;1.23;;;;;;;;;;5007168;28;20618;-83
2023/07/14 12:08:39;;;;;;;2.13;1.13;;;;;;;;;;5007880;28;20231;-84
2023/07/14 12:11:24;;;;;;;2.67;1.38;;;;;;;;;;5002314;28;20709;-84
2023/07/14 12:13:52;;;;;;;1.95;1.20;;;;;;;;;;4998468;28;20717;-83
2023/07/14 12:16:22;;;;;;;2.63;1.27;;;;;;;;;;4998528;28;20582;-83
2023/07/14 12:19:07;;;;;;;2.92;1.00;;;;;;;;;;5000840;28;20289;-82
2023/07/14 12:21:43;;;;;;;3.78;1.85;;;;;;;;;;5001271;28;20231;-83
2023/07/14 12:24:16;;;;;;;2.72;1.20;;;;;;;;;;4995994;28;20229;-84
2023/07/14 12:26:46;;;;;;;1.30;1.10;;;;;;;;;;5007906;28;20263;-83
2023/07/14 12:29:14;;;;;;;3.33;1.00;;;;;;;;;;4997422;28;20223;-84
2023/07/14 12:31:42;;;;;;;2.67;1.45;;;;;;;;;;5014246;28;20235;-83
2023/07/14 12:34:15;;;;;;;1.20;1.13;;;;;;;;;;5013950;28;20223;-83
2023/07/14 12:36:44;;;;;;;1.67;1.00;;;;;;;;;;5014099;28;20207;-84
2023/07/14 12:39:11;;;;;;;2.72;1.20;;;;;;;;;;5013840;28;20227;-83
2023/07/14 12:41:40;;;;;;;3.70;0.93;;;;;;;;;;5015604;28;20711;-83
2023/07/14 12:44:19;;;;;;;2.88;1.42;;;;;;;;;;5011452;28;20224;-84
2023/07/14 12:46:47;;;;;;;6.20;1.38;;;;;;;;;;5009585;28;20211;-84
2023/07/14 12:49:19;;;;;;;2.95;1.20;;;;;;;;;;5003541;28;20228;-84
2023/07/14 12:51:47;;;;;;;4.38;1.50;;;;;;;;;;5004792;28;20235;-83
2023/07/14 12:54:15;;;;;;;1.10;0.93;;;;;;;;;;5008113;28;20282;-84
2023/07/14 12:56:42;;;;;;;2.63;1.30;;;;;;;;;;5011810;28;20216;-83
2023/07/14 12:59:14;;;;;;;1.80;1.08;;;;;;;;;;5005420;28;20227;-82
2023/07/14 13:01:43;;;;;;;1.38;1.27;;;;;;;;;;5011737;28;20239;-85
2023/07/14 13:04:11;;;;;;;2.33;1.30;;;;;;;;;;5005423;28;20724;-83
2023/07/14 13:06:38;;;;;;;1.50;1.40;;;;;;;;;;5011786;28;20225;-81
2023/07/14 13:09:10;;;;;;;1.95;1.27;;;;;;;;;;5007783;28;20231;-83
2023/07/14 13:11:39;;;;;;;2.05;1.08;;;;;;;;;;5007670;28;20230;-83
2023/07/14 13:14:06;;;;;;;1.35;1.10;;;;;;;;;;5012769;28;20705;-82
2023/07/14 13:16:34;;;;;;;4.10;1.10;;;;;;;;;;5013280;28;20215;-82
2023/07/14 13:19:03;;;;;;;2.30;1.00;;;;;;;;;;5005031;28;20227;-82
2023/07/14 13:21:33;;;;;;;1.48;0.90;;;;;;;;;;5005252;28;20253;-82
2023/07/14 13:24:08;;;;;;;1.55;1.30;;;;;;;;;;5004251;28;20231;-82
2023/07/14 13:26:47;;;;;;;2.03;1.27;;;;;;;;;;5012596;28;20726;-81
2023/07/14 13:29:15;;;;;;;1.52;1.40;;;;;;;;;;5005200;28;20227;-82
2023/07/14 13:31:42;;;;;;;2.55;1.25;;;;;;;;;;5009789;28;20246;-84
2023/07/14 13:34:19;;;;;;;3.28;1.38;;;;;;;;;;5007353;28;20227;-84
2023/07/14 13:36:46;;;;;;;2.13;1.48;;;;;;;;;;5011047;28;20692;-81
2023/07/14 13:39:19;;;;;;;2.47;0.93;;;;;;;;;;5004219;28;20239;-81
2023/07/14 13:41:48;;;;;;;2.10;1.20;;;;;;;;;;5004783;28;20240;-82
2023/07/14 13:44:28;;;;;;;1.85;1.10;;;;;;;;;;5006872;28;20224;-82
2023/07/14 13:46:56;;;;;;;1.20;1.17;;;;;;;;;;5013408;28;20211;-82
2023/07/14 13:49:23;;;;;;;3.38;1.35;;;;;;;;;;5006031;28;20278;-84
2023/07/14 13:51:51;;;;;;;2.92;1.35;;;;;;;;;;5011796;28;20231;-84
2023/07/14 13:54:19;;;;;;;1.70;1.10;;;;;;;;;;5012258;28;20227;-81
2023/07/14 13:56:47;;;;;;;3.72;1.30;;;;;;;;;;5005871;28;20257;-82
2023/07/14 13:59:15;;;;;;;1.42;1.27;;;;;;;;;;5006546;28;20227;-83
2023/07/14 14:01:43;;;;;;;2.88;1.30;;;;;;;;;;5012780;28;20238;-82
2023/07/14 14:04:13;;;;;;;1.23;1.17;;;;;;;;;;5003847;28;20317;-82
2023/07/14 14:06:41;;;;;;;1.90;1.30;;;;;;;;;;5005803;28;20270;-82
2023/07/14 14:09:13;;;;;;;1.92;1.40;;;;;;;;;;5010294;28;20231;-84
2023/07/14 14:11:40;;;;;;;1.67;1.38;;;;;;;;;;4995527;28;20731;-83
2023/07/14 14:14:09;;;;;;;2.63;1.40;;;;;;;;;;5007673;28;20220;-83
2023/07/14 14:16:36;;;;;;;1.40;1.30;;;;;;;;;;4993542;28;20274;-82
2023/07/14 14:19:05;;;;;;;1.33;1.23;;;;;;;;;;5000640;28;20262;-83
2023/07/14 14:21:34;;;;;;;2.00;1.52;;;;;;;;;;5008757;28;20227;-83
2023/07/14 14:24:03;;;;;;;2.88;1.65;;;;;;;;;;5003933;28;20318;-82
2023/07/14 14:26:30;;;;;;;3.83;1.40;;;;;;;;;;5013079;28;20212;-84
2023/07/14 14:28:57;;;;;;;1.17;0.95;;;;;;;;;;5012282;28;20701;-82
2023/07/14 14:31:26;;;;;;;2.50;1.60;;;;;;;;;;5012527;28;20637;-82
2023/07/14 14:33:54;;;;;;;3.20;1.52;;;;;;;;;;5010710;28;20319;-82
2023/07/14 14:36:21;;;;;;;6.47;3.35;;;;;;;;;;5012657;28;20221;-81
2023/07/14 14:38:48;;;;;;;3.75;2.03;;;;;;;;;;5008909;28;20569;-81
2023/07/14 14:41:19;;;;;;;5.22;1.55;;;;;;;;;;4999892;28;20643;-82
2023/07/14 14:43:48;;;;;;;5.32;1.60;;;;;;;;;;5008905;28;20239;-82
2023/07/14 14:46:16;;;;;;;2.10;1.40;;;;;;;;;;5006760;28;20218;-81
2023/07/14 14:48:44;;;;;;;4.57;1.80;;;;;;;;;;5003527;28;20262;-82
2023/07/14 14:51:12;;;;;;;3.15;1.73;;;;;;;;;;5008661;28;20266;-82
2023/07/14 14:53:40;;;;;;;3.42;1.60;;;;;;;;;;5011137;28;20313;-82